sensor_id;sensor_type;location;lat;lon;timestamp;P1;durP1;ratioP1;P2;durP2;ratioP2
77206;SDS011;66190;50.708;7.906;2023-12-20T00:01:18;98.50;;;6.90;;
77206;SDS011;66190;50.708;7.906;2023-12-20T00:03:43;142.83;;;8.60;;
77206;SDS011;66190;50.708;7.906;2023-12-20T00:06:09;172.37;;;10.40;;
77206;SDS011;66190;50.708;7.906;2023-12-20T00:08:35;99.22;;;7.32;;
77206;SDS011;66190;50.708;7.906;2023-12-20T00:11:00;201.80;;;11.13;;
77206;SDS011;66190;50.708;7.906;2023-12-20T00:13:26;155.07;;;9.57;;
77206;SDS011;66190;50.708;7.906;2023-12-20T00:15:51;119.05;;;6.28;;
77206;SDS011;66190;50.708;7.906;2023-12-20T00:18:16;111.30;;;6.53;;
77206;SDS011;66190;50.708;7.906;2023-12-20T00:20:42;104.10;;;6.87;;
77206;SDS011;66190;50.708;7.906;2023-12-20T00:23:07;114.60;;;6.73;;
77206;SDS011;66190;50.708;7.906;2023-12-20T00:25:33;136.60;;;7.53;;
77206;SDS011;66190;50.708;7.906;2023-12-20T00:28:00;124.10;;;7.25;;
77206;SDS011;66190;50.708;7.906;2023-12-20T00:30:25;112.27;;;6.73;;
77206;SDS011;66190;50.708;7.906;2023-12-20T00:32:50;89.68;;;5.18;;
77206;SDS011;66190;50.708;7.906;2023-12-20T00:35:16;141.13;;;8.47;;
77206;SDS011;66190;50.708;7.906;2023-12-20T00:37:42;144.40;;;6.97;;
77206;SDS011;66190;50.708;7.906;2023-12-20T00:40:08;111.13;;;6.85;;
77206;SDS011;66190;50.708;7.906;2023-12-20T00:42:34;152.68;;;9.00;;
77206;SDS011;66190;50.708;7.906;2023-12-20T00:45:00;167.43;;;8.77;;
77206;SDS011;66190;50.708;7.906;2023-12-20T00:47:27;230.70;;;11.40;;
77206;SDS011;66190;50.708;7.906;2023-12-20T00:49:52;168.43;;;10.45;;
77206;SDS011;66190;50.708;7.906;2023-12-20T00:52:18;194.33;;;10.60;;
77206;SDS011;66190;50.708;7.906;2023-12-20T00:54:44;170.77;;;10.67;;
77206;SDS011;66190;50.708;7.906;2023-12-20T00:57:10;194.40;;;14.02;;
77206;SDS011;66190;50.708;7.906;2023-12-20T00:59:35;144.03;;;8.07;;
77206;SDS011;66190;50.708;7.906;2023-12-20T01:02:01;136.30;;;7.60;;
77206;SDS011;66190;50.708;7.906;2023-12-20T01:04:27;125.67;;;7.13;;
77206;SDS011;66190;50.708;7.906;2023-12-20T01:06:52;148.93;;;9.18;;
77206;SDS011;66190;50.708;7.906;2023-12-20T01:09:18;92.30;;;5.60;;
77206;SDS011;66190;50.708;7.906;2023-12-20T01:11:43;132.40;;;6.68;;
77206;SDS011;66190;50.708;7.906;2023-12-20T01:14:09;118.57;;;6.83;;
77206;SDS011;66190;50.708;7.906;2023-12-20T01:16:35;116.97;;;7.03;;
77206;SDS011;66190;50.708;7.906;2023-12-20T01:19:00;67.03;;;5.18;;
77206;SDS011;66190;50.708;7.906;2023-12-20T01:21:25;55.35;;;3.60;;
77206;SDS011;66190;50.708;7.906;2023-12-20T01:23:51;61.63;;;3.83;;
77206;SDS011;66190;50.708;7.906;2023-12-20T01:26:16;34.87;;;2.63;;
77206;SDS011;66190;50.708;7.906;2023-12-20T01:28:42;57.60;;;4.17;;
77206;SDS011;66190;50.708;7.906;2023-12-20T01:31:08;49.20;;;3.92;;
77206;SDS011;66190;50.708;7.906;2023-12-20T01:33:34;28.52;;;2.97;;
77206;SDS011;66190;50.708;7.906;2023-12-20T01:35:59;20.10;;;2.00;;
77206;SDS011;66190;50.708;7.906;2023-12-20T01:38:25;29.30;;;2.78;;
77206;SDS011;66190;50.708;7.906;2023-12-20T01:40:50;83.37;;;4.43;;
77206;SDS011;66190;50.708;7.906;2023-12-20T01:43:16;74.87;;;4.50;;
77206;SDS011;66190;50.708;7.906;2023-12-20T01:45:41;95.13;;;5.57;;
77206;SDS011;66190;50.708;7.906;2023-12-20T01:48:07;35.90;;;2.45;;
77206;SDS011;66190;50.708;7.906;2023-12-20T01:50:34;39.57;;;2.67;;
77206;SDS011;66190;50.708;7.906;2023-12-20T01:53:02;30.67;;;2.83;;
77206;SDS011;66190;50.708;7.906;2023-12-20T01:55:29;9.70;;;0.90;;
77206;SDS011;66190;50.708;7.906;2023-12-20T01:57:58;3.28;;;0.50;;
77206;SDS011;66190;50.708;7.906;2023-12-20T02:00:24;3.72;;;0.70;;
77206;SDS011;66190;50.708;7.906;2023-12-20T02:02:53;2.73;;;0.50;;
77206;SDS011;66190;50.708;7.906;2023-12-20T02:05:20;1.77;;;0.40;;
77206;SDS011;66190;50.708;7.906;2023-12-20T02:07:46;2.47;;;0.60;;
77206;SDS011;66190;50.708;7.906;2023-12-20T02:10:11;3.67;;;0.80;;
77206;SDS011;66190;50.708;7.906;2023-12-20T02:12:38;8.30;;;0.98;;
77206;SDS011;66190;50.708;7.906;2023-12-20T02:15:03;5.50;;;0.80;;
77206;SDS011;66190;50.708;7.906;2023-12-20T02:17:29;5.97;;;1.13;;
77206;SDS011;66190;50.708;7.906;2023-12-20T02:19:56;4.00;;;0.63;;
77206;SDS011;66190;50.708;7.906;2023-12-20T02:22:21;4.80;;;0.90;;
77206;SDS011;66190;50.708;7.906;2023-12-20T02:24:47;4.13;;;0.97;;
77206;SDS011;66190;50.708;7.906;2023-12-20T02:27:12;7.17;;;1.30;;
77206;SDS011;66190;50.708;7.906;2023-12-20T02:29:38;6.32;;;1.10;;
77206;SDS011;66190;50.708;7.906;2023-12-20T02:32:03;4.83;;;1.00;;
77206;SDS011;66190;50.708;7.906;2023-12-20T02:34:29;4.97;;;1.03;;
77206;SDS011;66190;50.708;7.906;2023-12-20T02:36:54;7.43;;;1.42;;
77206;SDS011;66190;50.708;7.906;2023-12-20T02:39:20;4.57;;;0.90;;
77206;SDS011;66190;50.708;7.906;2023-12-20T02:41:47;7.63;;;1.40;;
77206;SDS011;66190;50.708;7.906;2023-12-20T02:44:13;6.40;;;1.30;;
77206;SDS011;66190;50.708;7.906;2023-12-20T02:46:39;5.38;;;1.27;;
77206;SDS011;66190;50.708;7.906;2023-12-20T02:49:04;6.07;;;1.20;;
77206;SDS011;66190;50.708;7.906;2023-12-20T02:51:30;8.98;;;1.98;;
77206;SDS011;66190;50.708;7.906;2023-12-20T02:53:56;8.07;;;1.40;;
77206;SDS011;66190;50.708;7.906;2023-12-20T02:56:21;5.87;;;1.53;;
77206;SDS011;66190;50.708;7.906;2023-12-20T02:58:46;6.50;;;1.60;;
77206;SDS011;66190;50.708;7.906;2023-12-20T03:01:12;7.07;;;1.93;;
77206;SDS011;66190;50.708;7.906;2023-12-20T03:03:37;7.70;;;1.73;;
77206;SDS011;66190;50.708;7.906;2023-12-20T03:06:03;9.45;;;2.65;;
77206;SDS011;66190;50.708;7.906;2023-12-20T03:08:28;11.50;;;2.93;;
77206;SDS011;66190;50.708;7.906;2023-12-20T03:10:54;8.37;;;2.77;;
77206;SDS011;66190;50.708;7.906;2023-12-20T03:13:19;7.83;;;3.03;;
77206;SDS011;66190;50.708;7.906;2023-12-20T03:15:45;10.10;;;2.75;;
77206;SDS011;66190;50.708;7.906;2023-12-20T03:18:11;8.97;;;2.80;;
77206;SDS011;66190;50.708;7.906;2023-12-20T03:20:36;9.60;;;2.92;;
77206;SDS011;66190;50.708;7.906;2023-12-20T03:23:02;12.00;;;3.17;;
77206;SDS011;66190;50.708;7.906;2023-12-20T03:25:28;8.80;;;2.65;;
77206;SDS011;66190;50.708;7.906;2023-12-20T03:27:53;11.97;;;3.37;;
77206;SDS011;66190;50.708;7.906;2023-12-20T03:30:19;12.80;;;3.70;;
77206;SDS011;66190;50.708;7.906;2023-12-20T03:32:44;10.10;;;3.65;;
77206;SDS011;66190;50.708;7.906;2023-12-20T03:35:10;10.67;;;3.70;;
77206;SDS011;66190;50.708;7.906;2023-12-20T03:37:36;10.65;;;3.45;;
77206;SDS011;66190;50.708;7.906;2023-12-20T03:40:02;10.07;;;2.93;;
77206;SDS011;66190;50.708;7.906;2023-12-20T03:42:28;7.88;;;2.53;;
77206;SDS011;66190;50.708;7.906;2023-12-20T03:44:53;9.40;;;3.70;;
77206;SDS011;66190;50.708;7.906;2023-12-20T03:47:18;9.43;;;3.47;;
77206;SDS011;66190;50.708;7.906;2023-12-20T03:49:44;12.10;;;3.80;;
77206;SDS011;66190;50.708;7.906;2023-12-20T03:52:09;11.73;;;3.45;;
77206;SDS011;66190;50.708;7.906;2023-12-20T03:54:35;9.80;;;3.43;;
77206;SDS011;66190;50.708;7.906;2023-12-20T03:57:01;11.43;;;3.83;;
77206;SDS011;66190;50.708;7.906;2023-12-20T03:59:26;8.70;;;2.63;;
77206;SDS011;66190;50.708;7.906;2023-12-20T04:01:52;8.43;;;2.30;;
77206;SDS011;66190;50.708;7.906;2023-12-20T04:04:17;9.73;;;2.93;;
77206;SDS011;66190;50.708;7.906;2023-12-20T04:06:43;10.93;;;3.25;;
77206;SDS011;66190;50.708;7.906;2023-12-20T04:09:08;7.40;;;2.50;;
77206;SDS011;66190;50.708;7.906;2023-12-20T04:11:34;7.47;;;2.10;;
77206;SDS011;66190;50.708;7.906;2023-12-20T04:14:00;7.80;;;2.63;;
77206;SDS011;66190;50.708;7.906;2023-12-20T04:16:25;11.40;;;3.13;;
77206;SDS011;66190;50.708;7.906;2023-12-20T04:18:51;7.80;;;2.50;;
77206;SDS011;66190;50.708;7.906;2023-12-20T04:21:17;9.53;;;3.10;;
77206;SDS011;66190;50.708;7.906;2023-12-20T04:23:43;9.45;;;2.72;;
77206;SDS011;66190;50.708;7.906;2023-12-20T04:26:09;8.90;;;3.23;;
77206;SDS011;66190;50.708;7.906;2023-12-20T04:28:34;8.93;;;2.70;;
77206;SDS011;66190;50.708;7.906;2023-12-20T04:31:00;9.80;;;2.40;;
77206;SDS011;66190;50.708;7.906;2023-12-20T04:33:25;10.20;;;2.17;;
77206;SDS011;66190;50.708;7.906;2023-12-20T04:35:50;12.85;;;2.95;;
77206;SDS011;66190;50.708;7.906;2023-12-20T04:38:16;9.50;;;2.37;;
77206;SDS011;66190;50.708;7.906;2023-12-20T04:40:42;9.88;;;2.60;;
77206;SDS011;66190;50.708;7.906;2023-12-20T04:43:07;9.23;;;2.55;;
77206;SDS011;66190;50.708;7.906;2023-12-20T04:45:34;6.83;;;2.00;;
77206;SDS011;66190;50.708;7.906;2023-12-20T04:47:59;7.78;;;2.40;;
77206;SDS011;66190;50.708;7.906;2023-12-20T04:50:26;9.73;;;2.65;;
77206;SDS011;66190;50.708;7.906;2023-12-20T04:52:51;13.80;;;2.67;;
77206;SDS011;66190;50.708;7.906;2023-12-20T04:55:17;11.17;;;2.27;;
77206;SDS011;66190;50.708;7.906;2023-12-20T04:57:42;10.63;;;2.30;;
77206;SDS011;66190;50.708;7.906;2023-12-20T05:00:08;9.83;;;2.33;;
77206;SDS011;66190;50.708;7.906;2023-12-20T05:02:34;7.25;;;2.53;;
77206;SDS011;66190;50.708;7.906;2023-12-20T05:05:00;11.37;;;2.27;;
77206;SDS011;66190;50.708;7.906;2023-12-20T05:07:26;6.07;;;1.65;;
77206;SDS011;66190;50.708;7.906;2023-12-20T05:09:51;8.00;;;2.53;;
77206;SDS011;66190;50.708;7.906;2023-12-20T05:12:17;8.33;;;1.83;;
77206;SDS011;66190;50.708;7.906;2023-12-20T05:14:42;7.93;;;2.13;;
77206;SDS011;66190;50.708;7.906;2023-12-20T05:17:08;13.23;;;2.73;;
77206;SDS011;66190;50.708;7.906;2023-12-20T05:19:33;12.02;;;3.22;;
77206;SDS011;66190;50.708;7.906;2023-12-20T05:22:02;13.93;;;2.72;;
77206;SDS011;66190;50.708;7.906;2023-12-20T05:24:27;10.97;;;2.27;;
77206;SDS011;66190;50.708;7.906;2023-12-20T05:26:53;8.52;;;2.80;;
77206;SDS011;66190;50.708;7.906;2023-12-20T05:29:19;7.50;;;1.97;;
77206;SDS011;66190;50.708;7.906;2023-12-20T05:31:44;8.50;;;2.33;;
77206;SDS011;66190;50.708;7.906;2023-12-20T05:34:09;11.32;;;2.40;;
77206;SDS011;66190;50.708;7.906;2023-12-20T05:36:35;8.88;;;2.22;;
77206;SDS011;66190;50.708;7.906;2023-12-20T05:39:01;13.17;;;2.67;;
77206;SDS011;66190;50.708;7.906;2023-12-20T05:41:28;8.95;;;2.13;;
77206;SDS011;66190;50.708;7.906;2023-12-20T05:43:54;10.80;;;2.30;;
77206;SDS011;66190;50.708;7.906;2023-12-20T05:46:19;10.43;;;2.67;;
77206;SDS011;66190;50.708;7.906;2023-12-20T05:48:46;14.23;;;3.23;;
77206;SDS011;66190;50.708;7.906;2023-12-20T05:51:11;12.13;;;3.22;;
77206;SDS011;66190;50.708;7.906;2023-12-20T05:53:38;12.73;;;2.70;;
77206;SDS011;66190;50.708;7.906;2023-12-20T05:56:03;9.60;;;1.90;;
77206;SDS011;66190;50.708;7.906;2023-12-20T05:58:29;13.10;;;3.00;;
77206;SDS011;66190;50.708;7.906;2023-12-20T06:00:54;9.35;;;2.25;;
77206;SDS011;66190;50.708;7.906;2023-12-20T06:03:20;13.27;;;2.70;;
77206;SDS011;66190;50.708;7.906;2023-12-20T06:05:45;11.00;;;2.40;;
77206;SDS011;66190;50.708;7.906;2023-12-20T06:08:11;8.13;;;3.17;;
77206;SDS011;66190;50.708;7.906;2023-12-20T06:10:36;8.85;;;2.70;;
77206;SDS011;66190;50.708;7.906;2023-12-20T06:13:02;13.53;;;3.03;;
77206;SDS011;66190;50.708;7.906;2023-12-20T06:15:29;16.05;;;3.55;;
77206;SDS011;66190;50.708;7.906;2023-12-20T06:17:54;8.87;;;2.30;;
77206;SDS011;66190;50.708;7.906;2023-12-20T06:20:20;10.60;;;3.00;;
77206;SDS011;66190;50.708;7.906;2023-12-20T06:22:45;8.70;;;2.30;;
77206;SDS011;66190;50.708;7.906;2023-12-20T06:25:11;14.15;;;2.38;;
77206;SDS011;66190;50.708;7.906;2023-12-20T06:27:36;13.20;;;2.67;;
77206;SDS011;66190;50.708;7.906;2023-12-20T06:30:01;9.77;;;2.90;;
77206;SDS011;66190;50.708;7.906;2023-12-20T06:32:27;11.27;;;2.47;;
77206;SDS011;66190;50.708;7.906;2023-12-20T06:34:54;10.32;;;2.33;;
77206;SDS011;66190;50.708;7.906;2023-12-20T06:37:19;12.00;;;2.87;;
77206;SDS011;66190;50.708;7.906;2023-12-20T06:39:45;12.40;;;2.30;;
77206;SDS011;66190;50.708;7.906;2023-12-20T06:42:12;10.43;;;2.43;;
77206;SDS011;66190;50.708;7.906;2023-12-20T06:44:38;9.57;;;2.72;;
77206;SDS011;66190;50.708;7.906;2023-12-20T06:47:04;11.43;;;3.42;;
77206;SDS011;66190;50.708;7.906;2023-12-20T06:49:29;12.13;;;2.43;;
77206;SDS011;66190;50.708;7.906;2023-12-20T06:51:55;14.57;;;2.67;;
77206;SDS011;66190;50.708;7.906;2023-12-20T06:54:20;10.27;;;3.00;;
77206;SDS011;66190;50.708;7.906;2023-12-20T06:56:46;14.33;;;3.60;;
77206;SDS011;66190;50.708;7.906;2023-12-20T06:59:12;10.27;;;2.30;;
77206;SDS011;66190;50.708;7.906;2023-12-20T07:01:38;11.53;;;3.90;;
77206;SDS011;66190;50.708;7.906;2023-12-20T07:04:03;10.47;;;3.10;;
77206;SDS011;66190;50.708;7.906;2023-12-20T07:06:29;10.77;;;2.85;;
77206;SDS011;66190;50.708;7.906;2023-12-20T07:08:54;12.20;;;2.80;;
77206;SDS011;66190;50.708;7.906;2023-12-20T07:11:20;11.30;;;3.03;;
77206;SDS011;66190;50.708;7.906;2023-12-20T07:13:45;14.20;;;3.10;;
77206;SDS011;66190;50.708;7.906;2023-12-20T07:16:11;9.13;;;3.03;;
77206;SDS011;66190;50.708;7.906;2023-12-20T07:18:36;14.77;;;4.22;;
77206;SDS011;66190;50.708;7.906;2023-12-20T07:21:02;12.53;;;3.17;;
77206;SDS011;66190;50.708;7.906;2023-12-20T07:23:27;11.77;;;2.70;;
77206;SDS011;66190;50.708;7.906;2023-12-20T07:25:53;7.78;;;1.83;;
77206;SDS011;66190;50.708;7.906;2023-12-20T07:28:18;12.10;;;3.00;;
77206;SDS011;66190;50.708;7.906;2023-12-20T07:30:43;9.40;;;2.60;;
77206;SDS011;66190;50.708;7.906;2023-12-20T07:33:09;11.30;;;2.37;;
77206;SDS011;66190;50.708;7.906;2023-12-20T07:35:35;12.45;;;1.95;;
77206;SDS011;66190;50.708;7.906;2023-12-20T07:38:00;11.80;;;3.17;;
77206;SDS011;66190;50.708;7.906;2023-12-20T07:40:27;11.80;;;2.45;;
77206;SDS011;66190;50.708;7.906;2023-12-20T07:42:52;8.37;;;2.63;;
77206;SDS011;66190;50.708;7.906;2023-12-20T07:45:18;12.03;;;2.80;;
77206;SDS011;66190;50.708;7.906;2023-12-20T07:47:43;10.40;;;2.47;;
77206;SDS011;66190;50.708;7.906;2023-12-20T07:50:09;9.95;;;2.75;;
77206;SDS011;66190;50.708;7.906;2023-12-20T07:52:35;9.07;;;2.77;;
77206;SDS011;66190;50.708;7.906;2023-12-20T07:55:00;10.63;;;2.97;;
77206;SDS011;66190;50.708;7.906;2023-12-20T07:57:28;11.80;;;2.63;;
77206;SDS011;66190;50.708;7.906;2023-12-20T07:59:55;9.07;;;2.55;;
77206;SDS011;66190;50.708;7.906;2023-12-20T08:02:20;9.70;;;2.23;;
77206;SDS011;66190;50.708;7.906;2023-12-20T08:04:45;10.95;;;2.70;;
77206;SDS011;66190;50.708;7.906;2023-12-20T08:07:11;14.37;;;3.10;;
77206;SDS011;66190;50.708;7.906;2023-12-20T08:09:36;16.03;;;3.50;;
77206;SDS011;66190;50.708;7.906;2023-12-20T08:12:02;13.00;;;2.80;;
77206;SDS011;66190;50.708;7.906;2023-12-20T08:14:28;8.13;;;2.00;;
77206;SDS011;66190;50.708;7.906;2023-12-20T08:16:53;10.43;;;2.27;;
77206;SDS011;66190;50.708;7.906;2023-12-20T08:19:19;6.77;;;2.53;;
77206;SDS011;66190;50.708;7.906;2023-12-20T08:21:44;11.37;;;2.67;;
77206;SDS011;66190;50.708;7.906;2023-12-20T08:24:09;7.65;;;2.47;;
77206;SDS011;66190;50.708;7.906;2023-12-20T08:26:35;7.37;;;1.90;;
77206;SDS011;66190;50.708;7.906;2023-12-20T08:29:00;6.63;;;2.00;;
77206;SDS011;66190;50.708;7.906;2023-12-20T08:31:26;12.75;;;2.45;;
77206;SDS011;66190;50.708;7.906;2023-12-20T08:33:51;8.20;;;2.40;;
77206;SDS011;66190;50.708;7.906;2023-12-20T08:36:18;12.02;;;2.13;;
77206;SDS011;66190;50.708;7.906;2023-12-20T08:38:46;10.27;;;2.20;;
77206;SDS011;66190;50.708;7.906;2023-12-20T08:41:12;9.82;;;3.42;;
77206;SDS011;66190;50.708;7.906;2023-12-20T08:43:37;9.77;;;2.67;;
77206;SDS011;66190;50.708;7.906;2023-12-20T08:46:05;10.10;;;2.33;;
77206;SDS011;66190;50.708;7.906;2023-12-20T08:48:30;9.77;;;2.17;;
77206;SDS011;66190;50.708;7.906;2023-12-20T08:50:56;10.73;;;2.78;;
77206;SDS011;66190;50.708;7.906;2023-12-20T08:53:21;10.37;;;2.07;;
77206;SDS011;66190;50.708;7.906;2023-12-20T08:55:47;11.10;;;3.47;;
77206;SDS011;66190;50.708;7.906;2023-12-20T08:58:12;8.87;;;2.33;;
77206;SDS011;66190;50.708;7.906;2023-12-20T09:00:39;11.15;;;2.20;;
77206;SDS011;66190;50.708;7.906;2023-12-20T09:03:04;11.70;;;1.77;;
77206;SDS011;66190;50.708;7.906;2023-12-20T09:05:30;11.43;;;2.57;;
77206;SDS011;66190;50.708;7.906;2023-12-20T09:07:56;9.95;;;2.80;;
77206;SDS011;66190;50.708;7.906;2023-12-20T09:10:21;13.07;;;3.30;;
77206;SDS011;66190;50.708;7.906;2023-12-20T09:12:50;14.00;;;4.70;;
77206;SDS011;66190;50.708;7.906;2023-12-20T09:15:17;13.15;;;3.97;;
77206;SDS011;66190;50.708;7.906;2023-12-20T09:17:42;16.40;;;4.05;;
77206;SDS011;66190;50.708;7.906;2023-12-20T09:20:09;10.13;;;2.30;;
77206;SDS011;66190;50.708;7.906;2023-12-20T09:22:34;9.18;;;2.40;;
77206;SDS011;66190;50.708;7.906;2023-12-20T09:25:00;11.43;;;2.10;;
77206;SDS011;66190;50.708;7.906;2023-12-20T09:27:27;8.27;;;2.08;;
77206;SDS011;66190;50.708;7.906;2023-12-20T09:29:52;9.47;;;2.03;;
77206;SDS011;66190;50.708;7.906;2023-12-20T09:32:18;15.88;;;2.70;;
77206;SDS011;66190;50.708;7.906;2023-12-20T09:34:45;9.30;;;2.58;;
77206;SDS011;66190;50.708;7.906;2023-12-20T09:37:12;8.03;;;2.20;;
77206;SDS011;66190;50.708;7.906;2023-12-20T09:39:38;11.35;;;2.67;;
77206;SDS011;66190;50.708;7.906;2023-12-20T09:42:04;10.80;;;2.70;;
77206;SDS011;66190;50.708;7.906;2023-12-20T09:44:30;10.45;;;2.20;;
77206;SDS011;66190;50.708;7.906;2023-12-20T09:46:56;13.25;;;2.83;;
77206;SDS011;66190;50.708;7.906;2023-12-20T09:49:22;9.70;;;2.33;;
77206;SDS011;66190;50.708;7.906;2023-12-20T09:51:48;9.90;;;2.05;;
77206;SDS011;66190;50.708;7.906;2023-12-20T09:54:18;9.40;;;2.00;;
77206;SDS011;66190;50.708;7.906;2023-12-20T09:56:45;10.07;;;2.50;;
77206;SDS011;66190;50.708;7.906;2023-12-20T09:59:10;15.20;;;3.55;;
77206;SDS011;66190;50.708;7.906;2023-12-20T10:01:36;11.33;;;2.40;;
77206;SDS011;66190;50.708;7.906;2023-12-20T10:04:05;7.95;;;2.47;;
77206;SDS011;66190;50.708;7.906;2023-12-20T10:06:36;9.32;;;2.90;;
77206;SDS011;66190;50.708;7.906;2023-12-20T10:09:01;11.27;;;3.17;;
77206;SDS011;66190;50.708;7.906;2023-12-20T10:11:27;11.50;;;2.38;;
77206;SDS011;66190;50.708;7.906;2023-12-20T10:13:58;10.87;;;2.30;;
77206;SDS011;66190;50.708;7.906;2023-12-20T10:16:26;11.13;;;2.40;;
77206;SDS011;66190;50.708;7.906;2023-12-20T10:18:52;10.43;;;2.40;;
77206;SDS011;66190;50.708;7.906;2023-12-20T10:21:18;6.53;;;1.95;;
77206;SDS011;66190;50.708;7.906;2023-12-20T10:23:45;6.72;;;1.63;;
77206;SDS011;66190;50.708;7.906;2023-12-20T10:26:10;11.60;;;2.90;;
77206;SDS011;66190;50.708;7.906;2023-12-20T10:28:45;11.50;;;3.60;;
77206;SDS011;66190;50.708;7.906;2023-12-20T10:31:10;10.07;;;2.87;;
77206;SDS011;66190;50.708;7.906;2023-12-20T10:33:36;10.13;;;2.30;;
77206;SDS011;66190;50.708;7.906;2023-12-20T10:36:01;10.73;;;2.40;;
77206;SDS011;66190;50.708;7.906;2023-12-20T10:38:27;7.88;;;1.67;;
77206;SDS011;66190;50.708;7.906;2023-12-20T10:40:56;9.13;;;2.22;;
77206;SDS011;66190;50.708;7.906;2023-12-20T10:43:26;9.70;;;1.92;;
77206;SDS011;66190;50.708;7.906;2023-12-20T10:45:54;8.38;;;1.70;;
77206;SDS011;66190;50.708;7.906;2023-12-20T10:48:19;7.57;;;1.90;;
77206;SDS011;66190;50.708;7.906;2023-12-20T10:50:46;11.30;;;1.45;;
77206;SDS011;66190;50.708;7.906;2023-12-20T10:53:12;13.27;;;2.37;;
77206;SDS011;66190;50.708;7.906;2023-12-20T10:55:38;10.85;;;1.58;;
77206;SDS011;66190;50.708;7.906;2023-12-20T10:58:07;10.10;;;1.70;;
77206;SDS011;66190;50.708;7.906;2023-12-20T11:00:35;8.05;;;1.70;;
77206;SDS011;66190;50.708;7.906;2023-12-20T11:03:05;6.72;;;1.08;;
77206;SDS011;66190;50.708;7.906;2023-12-20T11:05:41;7.38;;;1.63;;
77206;SDS011;66190;50.708;7.906;2023-12-20T11:08:27;9.43;;;1.90;;
77206;SDS011;66190;50.708;7.906;2023-12-20T11:14:22;9.85;;;1.80;;
77206;SDS011;66190;50.708;7.906;2023-12-20T11:16:33;11.10;;;2.10;;
77206;SDS011;66190;50.708;7.906;2023-12-20T11:19:04;7.07;;;2.38;;
77206;SDS011;66190;50.708;7.906;2023-12-20T11:21:30;5.70;;;1.20;;
77206;SDS011;66190;50.708;7.906;2023-12-20T11:23:56;8.27;;;2.20;;
77206;SDS011;66190;50.708;7.906;2023-12-20T11:26:27;7.50;;;1.80;;
77206;SDS011;66190;50.708;7.906;2023-12-20T11:28:54;13.10;;;2.63;;
77206;SDS011;66190;50.708;7.906;2023-12-20T11:31:19;9.87;;;2.07;;
77206;SDS011;66190;50.708;7.906;2023-12-20T11:33:45;10.70;;;2.23;;
77206;SDS011;66190;50.708;7.906;2023-12-20T11:36:14;9.02;;;1.92;;
77206;SDS011;66190;50.708;7.906;2023-12-20T11:39:16;13.65;;;2.78;;
77206;SDS011;66190;50.708;7.906;2023-12-20T11:41:36;14.38;;;3.15;;
77206;SDS011;66190;50.708;7.906;2023-12-20T11:44:01;8.93;;;2.17;;
77206;SDS011;66190;50.708;7.906;2023-12-20T11:46:29;6.73;;;2.13;;
77206;SDS011;66190;50.708;7.906;2023-12-20T11:48:56;12.15;;;2.58;;
77206;SDS011;66190;50.708;7.906;2023-12-20T11:51:22;9.48;;;1.63;;
77206;SDS011;66190;50.708;7.906;2023-12-20T11:53:51;12.27;;;2.53;;
77206;SDS011;66190;50.708;7.906;2023-12-20T11:56:17;12.20;;;2.95;;
77206;SDS011;66190;50.708;7.906;2023-12-20T11:58:42;10.23;;;2.60;;
77206;SDS011;66190;50.708;7.906;2023-12-20T12:01:08;13.60;;;2.40;;
77206;SDS011;66190;50.708;7.906;2023-12-20T12:03:33;12.33;;;2.27;;
77206;SDS011;66190;50.708;7.906;2023-12-20T12:05:59;13.10;;;2.00;;
77206;SDS011;66190;50.708;7.906;2023-12-20T12:08:26;8.93;;;2.00;;
77206;SDS011;66190;50.708;7.906;2023-12-20T12:10:51;17.85;;;4.43;;
77206;SDS011;66190;50.708;7.906;2023-12-20T12:13:17;14.10;;;2.00;;
77206;SDS011;66190;50.708;7.906;2023-12-20T12:15:42;10.73;;;2.30;;
77206;SDS011;66190;50.708;7.906;2023-12-20T12:18:08;8.85;;;2.17;;
77206;SDS011;66190;50.708;7.906;2023-12-20T12:20:33;10.20;;;2.17;;
77206;SDS011;66190;50.708;7.906;2023-12-20T12:25:32;7.97;;;2.38;;
77206;SDS011;66190;50.708;7.906;2023-12-20T12:27:59;12.57;;;2.53;;
77206;SDS011;66190;50.708;7.906;2023-12-20T12:30:25;12.93;;;2.90;;
77206;SDS011;66190;50.708;7.906;2023-12-20T12:32:51;11.97;;;2.63;;
77206;SDS011;66190;50.708;7.906;2023-12-20T12:35:18;7.45;;;1.95;;
77206;SDS011;66190;50.708;7.906;2023-12-20T12:37:44;9.98;;;3.38;;
77206;SDS011;66190;50.708;7.906;2023-12-20T12:40:10;9.87;;;3.10;;
77206;SDS011;66190;50.708;7.906;2023-12-20T12:42:37;7.95;;;2.42;;
77206;SDS011;66190;50.708;7.906;2023-12-20T12:45:03;10.82;;;2.22;;
77206;SDS011;66190;50.708;7.906;2023-12-20T12:47:29;9.33;;;2.97;;
77206;SDS011;66190;50.708;7.906;2023-12-20T12:49:55;15.18;;;2.47;;
77206;SDS011;66190;50.708;7.906;2023-12-20T12:52:21;10.70;;;2.40;;
77206;SDS011;66190;50.708;7.906;2023-12-20T12:54:46;13.87;;;3.07;;
77206;SDS011;66190;50.708;7.906;2023-12-20T12:57:13;11.23;;;2.90;;
77206;SDS011;66190;50.708;7.906;2023-12-20T12:59:39;8.50;;;1.88;;
77206;SDS011;66190;50.708;7.906;2023-12-20T13:02:05;10.07;;;2.70;;
77206;SDS011;66190;50.708;7.906;2023-12-20T13:04:30;11.85;;;2.25;;
77206;SDS011;66190;50.708;7.906;2023-12-20T13:06:56;10.70;;;2.08;;
77206;SDS011;66190;50.708;7.906;2023-12-20T13:09:22;10.10;;;2.00;;
77206;SDS011;66190;50.708;7.906;2023-12-20T13:11:48;9.43;;;2.47;;
77206;SDS011;66190;50.708;7.906;2023-12-20T13:14:13;9.75;;;2.00;;
77206;SDS011;66190;50.708;7.906;2023-12-20T13:16:40;11.63;;;2.30;;
77206;SDS011;66190;50.708;7.906;2023-12-20T13:19:06;8.27;;;2.50;;
77206;SDS011;66190;50.708;7.906;2023-12-20T13:21:32;11.95;;;2.38;;
77206;SDS011;66190;50.708;7.906;2023-12-20T13:23:57;11.87;;;2.53;;
77206;SDS011;66190;50.708;7.906;2023-12-20T13:26:23;7.27;;;2.30;;
77206;SDS011;66190;50.708;7.906;2023-12-20T13:28:48;9.37;;;2.40;;
77206;SDS011;66190;50.708;7.906;2023-12-20T13:31:14;7.95;;;2.60;;
77206;SDS011;66190;50.708;7.906;2023-12-20T13:33:39;11.20;;;2.88;;
77206;SDS011;66190;50.708;7.906;2023-12-20T13:36:05;8.37;;;2.70;;
77206;SDS011;66190;50.708;7.906;2023-12-20T13:38:31;9.50;;;2.58;;
77206;SDS011;66190;50.708;7.906;2023-12-20T13:40:57;10.85;;;3.17;;
77206;SDS011;66190;50.708;7.906;2023-12-20T13:43:23;10.95;;;2.45;;
77206;SDS011;66190;50.708;7.906;2023-12-20T13:45:49;12.63;;;3.75;;
77206;SDS011;66190;50.708;7.906;2023-12-20T13:48:15;9.40;;;2.20;;
77206;SDS011;66190;50.708;7.906;2023-12-20T13:50:41;7.78;;;1.80;;
77206;SDS011;66190;50.708;7.906;2023-12-20T13:53:06;13.47;;;2.60;;
77206;SDS011;66190;50.708;7.906;2023-12-20T13:55:32;11.80;;;3.40;;
77206;SDS011;66190;50.708;7.906;2023-12-20T13:57:57;8.55;;;2.42;;
77206;SDS011;66190;50.708;7.906;2023-12-20T14:00:23;8.63;;;2.47;;
77206;SDS011;66190;50.708;7.906;2023-12-20T14:02:49;12.32;;;2.20;;
77206;SDS011;66190;50.708;7.906;2023-12-20T14:05:14;10.37;;;2.80;;
77206;SDS011;66190;50.708;7.906;2023-12-20T14:07:42;10.85;;;2.92;;
77206;SDS011;66190;50.708;7.906;2023-12-20T14:10:11;9.15;;;3.15;;
77206;SDS011;66190;50.708;7.906;2023-12-20T14:12:40;10.30;;;3.42;;
77206;SDS011;66190;50.708;7.906;2023-12-20T14:15:06;10.70;;;2.33;;
77206;SDS011;66190;50.708;7.906;2023-12-20T14:17:36;11.35;;;3.35;;
77206;SDS011;66190;50.708;7.906;2023-12-20T14:20:06;11.32;;;2.58;;
77206;SDS011;66190;50.708;7.906;2023-12-20T14:22:33;10.13;;;2.27;;
77206;SDS011;66190;50.708;7.906;2023-12-20T14:24:58;8.52;;;2.22;;
77206;SDS011;66190;50.708;7.906;2023-12-20T14:27:24;12.83;;;3.43;;
77206;SDS011;66190;50.708;7.906;2023-12-20T14:29:55;10.73;;;3.53;;
77206;SDS011;66190;50.708;7.906;2023-12-20T14:32:20;10.63;;;3.17;;
77206;SDS011;66190;50.708;7.906;2023-12-20T14:34:46;8.33;;;2.00;;
77206;SDS011;66190;50.708;7.906;2023-12-20T14:37:12;11.10;;;2.70;;